Time;durP1;ratioP1;P1;durP2;ratioP2;P2;SDS_P1;SDS_P2;PMS_P1;PMS_P2;Temp;Humidity;BMP_temperature;BMP_pressure;BME280_temperature;BME280_humidity;BME280_pressure;Samples;Min_cycle;Max_cycle;Signal;HPM_P1;HPM_P2
2021/07/10 00:00:35;;;;;;;11.40;7.73;;;19.20;80.90;;;;;;10454236;28;20236;-23
2021/07/10 00:05:58;;;;;;;12.70;7.80;;;19.10;81.30;;;;;;10453324;28;20213;-23
2021/07/10 00:11:20;;;;;;;10.13;8.27;;;19.10;81.80;;;;;;10454922;28;20652;-24
2021/07/10 00:16:43;;;;;;;11.17;8.17;;;19.10;81.60;;;;;;10452595;28;20208;-23
2021/07/10 00:22:07;;;;;;;8.33;7.53;;;19.10;81.10;;;;;;10456932;28;20731;-23
2021/07/10 00:27:29;;;;;;;12.23;8.00;;;19.20;81.40;;;;;;10454401;28;20580;-24
2021/07/10 00:32:51;;;;;;;8.93;7.33;;;19.10;80.90;;;;;;10453843;28;20580;-23
2021/07/10 00:38:15;;;;;;;10.17;7.40;;;19.10;80.80;;;;;;10453153;28;20189;-24
2021/07/10 00:43:37;;;;;;;8.23;7.23;;;19.10;80.90;;;;;;10448812;28;20810;-23
2021/07/10 00:48:59;;;;;;;8.00;7.20;;;19.10;80.70;;;;;;10453577;28;20204;-26
2021/07/10 00:54:22;;;;;;;8.87;7.13;;;19.00;80.20;;;;;;10451036;28;20216;-24
2021/07/10 00:59:45;;;;;;;10.67;8.17;;;19.00;80.30;;;;;;10452949;28;20189;-24
2021/07/10 01:05:10;;;;;;;10.00;7.60;;;18.90;80.50;;;;;;10452906;28;20209;-25
2021/07/10 01:10:33;;;;;;;7.63;6.80;;;18.80;80.40;;;;;;10412043;28;20208;-23
2021/07/10 01:15:56;;;;;;;9.57;8.13;;;18.90;79.90;;;;;;10421834;28;20671;-24
2021/07/10 01:21:19;;;;;;;8.33;7.53;;;18.90;80.10;;;;;;10448374;28;20212;-24
2021/07/10 01:26:41;;;;;;;9.77;7.73;;;18.80;80.10;;;;;;10452364;28;20193;-23
2021/07/10 01:32:04;;;;;;;11.40;8.10;;;18.80;79.60;;;;;;10451014;28;20254;-24
2021/07/10 01:37:27;;;;;;;10.00;8.13;;;18.80;79.80;;;;;;10452749;28;20196;-26
2021/07/10 01:42:51;;;;;;;9.70;7.93;;;18.80;80.00;;;;;;10472119;22;20233;-33
2021/07/10 01:48:13;;;;;;;11.60;7.63;;;19.00;79.90;;;;;;10421214;28;20201;-32
2021/07/10 01:53:37;;;;;;;9.77;7.70;;;18.90;79.70;;;;;;10404936;28;20280;-30
2021/07/10 01:58:59;;;;;;;11.83;8.60;;;19.00;79.50;;;;;;10386746;28;20210;-35
2021/07/10 02:04:22;;;;;;;11.27;7.80;;;19.00;79.20;;;;;;10417741;28;20595;-31
2021/07/10 02:09:46;;;;;;;10.50;7.90;;;18.90;79.00;;;;;;10419054;28;20201;-32
2021/07/10 02:15:09;;;;;;;8.43;7.53;;;18.90;78.90;;;;;;10420324;28;20214;-32
2021/07/10 02:20:32;;;;;;;9.10;8.13;;;18.90;78.50;;;;;;10405512;28;20190;-31
2021/07/10 02:25:55;;;;;;;7.87;7.07;;;18.80;78.50;;;;;;10423364;28;20675;-32
2021/07/10 02:31:18;;;;;;;9.00;8.10;;;18.80;79.20;;;;;;10459860;28;20193;-31
2021/07/10 02:36:40;;;;;;;9.13;8.10;;;18.80;78.80;;;;;;10458458;28;20213;-31
2021/07/10 02:42:04;;;;;;;10.73;8.07;;;18.80;78.90;;;;;;10430275;28;20207;-31
2021/07/10 02:47:26;;;;;;;10.70;7.83;;;18.80;78.90;;;;;;10410942;28;20190;-33
2021/07/10 02:52:49;;;;;;;9.93;8.17;;;18.80;79.30;;;;;;10416123;28;20210;-33
2021/07/10 02:58:12;;;;;;;8.77;7.87;;;18.80;79.30;;;;;;10416191;28;20197;-35
2021/07/10 03:03:35;;;;;;;8.53;7.60;;;18.80;78.70;;;;;;10405852;28;20224;-32
2021/07/10 03:08:57;;;;;;;9.47;8.30;;;18.80;78.70;;;;;;10415596;28;20501;-31
2021/07/10 03:14:20;;;;;;;9.93;7.67;;;18.90;78.40;;;;;;10416389;28;20214;-30
2021/07/10 03:19:42;;;;;;;11.33;8.33;;;18.80;78.50;;;;;;10376701;28;20194;-32
2021/07/10 03:25:07;;;;;;;9.43;7.70;;;18.70;78.70;;;;;;10416121;28;20593;-32
2021/07/10 03:30:30;;;;;;;11.03;7.97;;;18.70;78.60;;;;;;10404054;28;20272;-31
2021/07/10 03:35:52;;;;;;;9.20;8.13;;;18.80;78.00;;;;;;10415150;28;20237;-32
2021/07/10 03:46:52;;;;;;;9.13;8.17;;;18.70;78.20;;;;;;10415208;28;20206;-33
2021/07/10 03:52:14;;;;;;;11.87;9.07;;;18.60;77.80;;;;;;10414687;28;20206;-32
2021/07/10 03:57:36;;;;;;;9.20;8.30;;;18.60;78.20;;;;;;10414239;28;20194;-31
2021/07/10 04:03:00;;;;;;;12.33;8.67;;;18.60;77.40;;;;;;10411441;28;20221;-33
2021/07/10 04:08:22;;;;;;;13.93;9.10;;;18.60;77.90;;;;;;10378362;28;20197;-32
2021/07/10 04:13:44;;;;;;;9.40;8.50;;;18.60;77.60;;;;;;10413692;28;20676;-32
2021/07/10 04:19:08;;;;;;;12.00;8.80;;;18.60;77.30;;;;;;10413047;28;20198;-32
2021/07/10 04:24:30;;;;;;;12.07;9.40;;;18.50;77.80;;;;;;10412747;28;20213;-30
2021/07/10 04:29:52;;;;;;;11.10;8.93;;;18.50;77.80;;;;;;10413587;28;20194;-32
2021/07/10 04:35:16;;;;;;;11.00;8.80;;;18.50;77.90;;;;;;10412977;28;20202;-33
2021/07/10 04:40:39;;;;;;;11.07;8.10;;;18.60;78.10;;;;;;10412752;28;20193;-30
2021/07/10 04:46:01;;;;;;;10.67;8.87;;;18.60;78.30;;;;;;10404216;28;20222;-32
2021/07/10 04:51:25;;;;;;;10.07;7.93;;;18.60;78.10;;;;;;10370831;28;20182;-30
2021/07/10 04:56:47;;;;;;;11.07;8.20;;;18.60;78.50;;;;;;10370899;28;20586;-32
2021/07/10 05:02:09;;;;;;;8.83;7.70;;;18.50;78.80;;;;;;10389877;28;20695;-32
2021/07/10 05:07:32;;;;;;;12.87;8.17;;;18.50;79.20;;;;;;10412433;28;20196;-33
2021/07/10 05:12:55;;;;;;;8.90;7.53;;;18.60;79.30;;;;;;10412038;28;20564;-33
2021/07/10 05:18:17;;;;;;;8.27;6.37;;;18.60;79.00;;;;;;10450848;28;20746;-32
2021/07/10 05:23:41;;;;;;;10.03;7.80;;;18.70;79.00;;;;;;10419098;28;20774;-30
2021/07/10 05:29:05;;;;;;;8.30;7.00;;;18.70;78.10;;;;;;10402425;28;20264;-31
2021/07/10 05:34:28;;;;;;;9.07;7.20;;;18.80;78.70;;;;;;10445644;28;20219;-31
2021/07/10 05:39:51;;;;;;;8.20;6.63;;;18.80;78.40;;;;;;10452090;28;20189;-32
2021/07/10 05:45:13;;;;;;;8.13;6.80;;;18.80;78.40;;;;;;10426161;28;20228;-32
2021/07/10 05:50:35;;;;;;;8.27;5.93;;;18.80;78.20;;;;;;10410660;28;20193;-34
2021/07/10 05:55:59;;;;;;;7.97;7.03;;;18.80;78.40;;;;;;10410713;28;20224;-31
2021/07/10 06:01:21;;;;;;;6.60;5.87;;;18.90;78.60;;;;;;10410447;28;20560;-31
2021/07/10 06:06:44;;;;;;;7.60;6.13;;;18.90;77.70;;;;;;10410364;28;20775;-32
2021/07/10 06:12:08;;;;;;;6.43;5.83;;;19.00;78.10;;;;;;10409812;28;20268;-32
2021/07/10 06:17:30;;;;;;;6.93;5.63;;;19.00;77.80;;;;;;10410520;28;20661;-32
2021/07/10 06:22:54;;;;;;;8.07;5.23;;;19.10;77.70;;;;;;10409990;28;20741;-32
2021/07/10 06:28:17;;;;;;;6.33;5.27;;;19.20;77.40;;;;;;10409897;28;20198;-31
2021/07/10 06:33:39;;;;;;;6.50;4.77;;;19.30;77.00;;;;;;10369183;28;20214;-32
2021/07/10 06:39:01;;;;;;;7.27;5.17;;;19.40;77.20;;;;;;10375246;28;20202;-31
2021/07/10 06:44:25;;;;;;;5.13;4.60;;;19.50;77.10;;;;;;10396135;28;20230;-33
2021/07/10 06:49:47;;;;;;;4.83;4.30;;;19.50;77.00;;;;;;10415450;28;20215;-32
2021/07/10 06:55:12;;;;;;;4.90;4.37;;;19.50;77.10;;;;;;10415932;28;20719;-31
2021/07/10 07:00:35;;;;;;;4.60;4.10;;;19.60;77.20;;;;;;10434034;28;20189;-32
2021/07/10 07:05:57;;;;;;;9.00;4.00;;;19.60;76.70;;;;;;10446338;28;20739;-32
2021/07/10 07:11:19;;;;;;;10.83;4.70;;;19.70;76.80;;;;;;10414670;28;20200;-33
2021/07/10 07:16:43;;;;;;;16.70;5.07;;;19.70;77.20;;;;;;10451730;28;20221;-31
2021/07/10 07:22:05;;;;;;;13.00;5.90;;;19.70;76.80;;;;;;10437042;28;20225;-32
2021/07/10 07:27:27;;;;;;;7.47;5.63;;;19.70;76.00;;;;;;10409207;28;20186;-33
2021/07/10 07:32:51;;;;;;;8.93;5.93;;;19.80;76.10;;;;;;10404838;28;20214;-32
2021/07/10 07:38:13;;;;;;;13.67;6.20;;;19.80;76.20;;;;;;10413794;28;20235;-32
2021/07/10 07:43:36;;;;;;;43.10;9.33;;;19.80;76.00;;;;;;10423581;23;20226;-24
2021/07/10 07:49:00;;;;;;;56.83;10.50;;;19.80;75.90;;;;;;10409090;28;20198;-25
2021/07/10 07:54:23;;;;;;;51.80;11.33;;;19.80;75.90;;;;;;10404381;28;20245;-24
2021/07/10 07:59:45;;;;;;;29.93;8.80;;;19.90;76.00;;;;;;10373283;28;20191;-25
2021/07/10 08:05:11;;;;;;;25.57;8.83;;;19.90;75.80;;;;;;10372263;28;20376;-24
2021/07/10 08:10:33;;;;;;;7.97;6.83;;;19.90;75.80;;;;;;10365406;28;20201;-24
2021/07/10 08:15:55;;;;;;;14.67;6.90;;;19.90;73.00;;;;;;10372893;28;20210;-24
2021/07/10 08:21:19;;;;;;;18.13;6.83;;;19.90;73.30;;;;;;10384807;28;20208;-24
2021/07/10 08:26:41;;;;;;;10.50;6.03;;;19.90;71.90;;;;;;10412863;28;20222;-25
2021/07/10 08:32:04;;;;;;;34.30;7.90;;;19.90;72.40;;;;;;10379962;28;20680;-25
2021/07/10 08:37:27;;;;;;;44.77;8.30;;;20.00;73.00;;;;;;10380356;28;20202;-23
2021/07/10 08:42:50;;;;;;;84.77;10.17;;;20.00;72.40;;;;;;10371385;28;20219;-23
2021/07/10 08:48:14;;;;;;;16.50;6.37;;;20.00;72.90;;;;;;10370806;28;20209;-23
2021/07/10 08:53:37;;;;;;;13.63;6.60;;;20.00;71.80;;;;;;10378502;28;20209;-23
2021/07/10 08:59:00;;;;;;;16.03;6.83;;;20.00;71.10;;;;;;10410822;28;20209;-24
2021/07/10 09:04:23;;;;;;;8.87;6.50;;;20.00;72.10;;;;;;10412247;28;20299;-23
2021/07/10 09:09:48;;;;;;;8.47;6.40;;;20.00;71.20;;;;;;10409627;28;20769;-23
2021/07/10 09:15:18;;;;;;;20.80;7.83;;;20.00;70.40;;;;;;10372294;28;20215;-23
2021/07/10 09:20:43;;;;;;;23.77;8.67;;;20.00;71.30;;;;;;10380892;28;20210;-22
2021/07/10 09:26:21;;;;;;;38.23;10.57;;;20.00;71.80;;;;;;10410281;28;20301;-23
2021/07/10 09:31:45;;;;;;;63.80;12.80;;;20.00;72.10;;;;;;10370753;28;20213;-23
2021/07/10 09:37:10;;;;;;;43.47;10.47;;;20.10;72.00;;;;;;10369414;28;20273;-23
2021/07/10 09:42:35;;;;;;;37.87;9.90;;;20.00;72.60;;;;;;10368131;28;20252;-23
2021/07/10 09:48:10;;;;;;;18.63;8.03;;;20.10;73.80;;;;;;10367018;28;20199;-23
2021/07/10 09:53:33;;;;;;;17.53;7.37;;;20.00;74.20;;;;;;10368325;28;20238;-23
2021/07/10 09:58:57;;;;;;;11.40;6.83;;;20.10;74.80;;;;;;10368901;28;20193;-24
2021/07/10 10:04:25;;;;;;;16.97;6.83;;;20.10;75.20;;;;;;10368838;28;20491;-22
2021/07/10 10:09:54;;;;;;;17.57;8.07;;;20.10;75.60;;;;;;10373960;28;20206;-23
2021/07/10 10:15:17;;;;;;;57.37;11.30;;;20.00;75.30;;;;;;10410252;28;20643;-24
2021/07/10 10:20:41;;;;;;;40.60;11.17;;;20.10;75.50;;;;;;10409280;28;20217;-22
2021/07/10 10:26:04;;;;;;;38.73;10.77;;;20.10;75.50;;;;;;10415986;28;20220;-24
2021/07/10 10:31:28;;;;;;;32.03;9.97;;;20.10;76.10;;;;;;10417677;28;20202;-23
2021/07/10 10:36:53;;;;;;;20.17;8.83;;;20.10;76.00;;;;;;10410030;28;20226;-24
2021/07/10 10:42:21;;;;;;;14.63;7.80;;;20.10;75.80;;;;;;10375579;28;20198;-23
2021/07/10 10:47:49;;;;;;;14.17;7.33;;;20.10;75.60;;;;;;10397511;28;20190;-23
2021/07/10 10:53:22;;;;;;;21.53;7.60;;;20.10;75.80;;;;;;10416780;28;20206;-23
2021/07/10 10:58:44;;;;;;;11.20;7.10;;;20.10;76.00;;;;;;10402965;28;20317;-23
2021/07/10 11:04:08;;;;;;;14.70;7.40;;;20.10;76.00;;;;;;10374595;28;20221;-23
2021/07/10 11:10:12;;;;;;;9.13;6.90;;;20.10;75.40;;;;;;10380253;28;20213;-23
2021/07/10 11:15:44;;;;;;;11.30;6.23;;;20.10;74.80;;;;;;10399549;28;20206;-24
2021/07/10 11:21:07;;;;;;;17.10;6.80;;;20.10;75.10;;;;;;10380914;28;20279;-23
2021/07/10 11:26:29;;;;;;;9.57;7.10;;;20.10;75.00;;;;;;10411458;28;20210;-23
2021/07/10 11:31:52;;;;;;;17.27;10.83;;;20.20;75.50;;;;;;10389401;28;20190;-23
2021/07/10 11:37:17;;;;;;;23.43;13.23;;;20.10;75.40;;;;;;10412739;28;20201;-23
2021/07/10 11:42:44;;;;;;;26.97;12.17;;;20.20;75.40;;;;;;10403847;28;20581;-20
2021/07/10 11:48:24;;;;;;;16.73;11.77;;;20.10;75.60;;;;;;10372834;28;20187;-23
2021/07/10 11:53:58;;;;;;;14.17;11.23;;;20.10;76.00;;;;;;10385951;28;20217;-23
2021/07/10 11:59:20;;;;;;;14.27;9.40;;;20.10;75.80;;;;;;10392059;28;20201;-23
2021/07/10 12:04:58;;;;;;;14.47;9.17;;;20.10;76.10;;;;;;10400260;28;20222;-21
2021/07/10 12:10:24;;;;;;;13.83;8.63;;;20.10;76.80;;;;;;10411399;28;20680;-23
2021/07/10 12:15:49;;;;;;;15.47;7.53;;;20.20;76.70;;;;;;10405117;28;20209;-24
2021/07/10 12:21:14;;;;;;;10.83;7.13;;;20.10;76.80;;;;;;10392125;28;20198;-23
2021/07/10 12:26:37;;;;;;;11.80;6.97;;;20.10;76.60;;;;;;10413212;28;20282;-23
2021/07/10 12:31:59;;;;;;;10.03;6.90;;;20.20;77.00;;;;;;10409130;28;20708;-23
2021/07/10 12:37:23;;;;;;;8.33;7.43;;;20.10;77.20;;;;;;10403856;28;20200;-23
2021/07/10 12:42:56;;;;;;;10.17;7.20;;;20.20;77.40;;;;;;10402177;28;20226;-24
2021/07/10 12:48:20;;;;;;;14.87;6.97;;;20.20;77.30;;;;;;10403767;28;20205;-23
2021/07/10 12:53:46;;;;;;;11.83;6.90;;;20.20;77.30;;;;;;10371378;28;20217;-23
2021/07/10 12:59:09;;;;;;;16.27;6.87;;;20.20;76.90;;;;;;10409886;28;20225;-23
2021/07/10 13:04:33;;;;;;;11.83;6.37;;;20.20;76.30;;;;;;10400853;28;20218;-23
2021/07/10 13:09:55;;;;;;;12.37;6.80;;;20.20;76.40;;;;;;10377620;28;20202;-24
2021/07/10 13:15:20;;;;;;;13.47;6.60;;;20.20;76.70;;;;;;10400610;28;20225;-24
2021/07/10 13:20:44;;;;;;;22.80;6.53;;;20.20;76.70;;;;;;10370822;28;20658;-22
2021/07/10 13:26:08;;;;;;;16.67;6.40;;;20.20;76.90;;;;;;10367916;28;20222;-24
2021/07/10 13:31:33;;;;;;;13.00;7.10;;;20.20;77.10;;;;;;10394000;28;20201;-23
2021/07/10 13:37:00;;;;;;;9.53;6.60;;;20.20;76.80;;;;;;10401436;28;20691;-22
2021/07/10 13:42:23;;;;;;;11.10;6.73;;;20.20;75.70;;;;;;10409665;28;20206;-23
2021/07/10 13:47:46;;;;;;;13.17;6.67;;;20.30;75.40;;;;;;10456330;22;20226;-32
2021/07/10 13:53:16;;;;;;;10.30;6.30;;;20.30;76.00;;;;;;10446989;28;20192;-31
2021/07/10 13:58:38;;;;;;;10.90;6.23;;;20.30;76.20;;;;;;10410441;28;20205;-32
2021/07/10 14:04:12;;;;;;;8.67;6.03;;;20.30;76.30;;;;;;10406570;28;20744;-37
2021/07/10 14:09:34;;;;;;;9.20;5.97;;;20.30;76.60;;;;;;10378639;28;20194;-36
2021/07/10 14:14:56;;;;;;;9.87;6.27;;;20.20;76.40;;;;;;10417424;28;20699;-31
2021/07/10 14:20:22;;;;;;;7.10;5.57;;;20.20;77.20;;;;;;10412725;28;20201;-31
2021/07/10 14:25:44;;;;;;;8.67;6.03;;;20.30;77.00;;;;;;10375991;28;20210;-31
2021/07/10 14:31:06;;;;;;;6.70;5.83;;;20.20;76.80;;;;;;10388445;28;20657;-35
2021/07/10 14:36:30;;;;;;;8.50;6.00;;;20.30;77.00;;;;;;10404995;28;20205;-34
2021/07/10 14:41:52;;;;;;;6.83;5.43;;;20.20;76.60;;;;;;10417146;28;20217;-32
2021/07/10 14:47:15;;;;;;;8.47;5.50;;;20.20;76.70;;;;;;10383969;28;20225;-34
2021/07/10 14:52:39;;;;;;;5.87;5.33;;;20.20;77.00;;;;;;10370253;28;20198;-35
2021/07/10 14:58:01;;;;;;;5.83;5.33;;;20.20;76.90;;;;;;10383117;28;20215;-31
2021/07/10 15:03:23;;;;;;;9.70;5.40;;;20.20;76.80;;;;;;10373659;28;20751;-31
2021/07/10 15:08:46;;;;;;;6.20;5.47;;;20.20;76.90;;;;;;10389396;28;20191;-33
2021/07/10 15:14:08;;;;;;;6.47;5.40;;;20.20;77.00;;;;;;10404053;28;20216;-35
2021/07/10 15:19:30;;;;;;;6.23;5.67;;;20.20;76.80;;;;;;10375006;28;20202;-34
2021/07/10 15:24:54;;;;;;;9.63;5.77;;;20.20;76.90;;;;;;10373930;28;20229;-31
2021/07/10 15:30:17;;;;;;;5.43;4.93;;;20.20;77.40;;;;;;10375151;28;20198;-31
2021/07/10 15:35:40;;;;;;;7.30;5.50;;;20.20;77.00;;;;;;10379399;28;20213;-34
2021/07/10 15:41:03;;;;;;;6.43;5.07;;;20.20;77.00;;;;;;10383405;28;20190;-36
2021/07/10 15:46:25;;;;;;;5.17;4.70;;;20.20;77.00;;;;;;10375890;28;20218;-30
2021/07/10 15:51:49;;;;;;;6.57;5.00;;;20.20;77.00;;;;;;10372518;28;20202;-34
2021/07/10 15:57:13;;;;;;;5.87;5.13;;;20.20;76.90;;;;;;10374036;28;20210;-32
2021/07/10 16:02:35;;;;;;;5.50;4.87;;;20.20;77.10;;;;;;10367564;28;20645;-31
2021/07/10 16:07:57;;;;;;;4.97;4.53;;;20.20;77.00;;;;;;10372995;28;20744;-33
2021/07/10 16:13:21;;;;;;;5.47;4.97;;;20.10;76.80;;;;;;10396624;28;20596;-35
2021/07/10 16:18:43;;;;;;;5.20;4.57;;;20.20;76.80;;;;;;10374022;28;20260;-30
2021/07/10 16:24:05;;;;;;;5.27;4.77;;;20.20;77.00;;;;;;10405086;28;20213;-31
2021/07/10 16:29:29;;;;;;;5.60;5.03;;;20.20;77.20;;;;;;10413442;28;20194;-33
2021/07/10 16:34:51;;;;;;;5.07;4.57;;;20.10;77.00;;;;;;10412885;28;20208;-34
2021/07/10 16:40:17;;;;;;;5.40;4.67;;;20.10;77.00;;;;;;10402606;28;20277;-35
2021/07/10 16:45:41;;;;;;;10.67;4.80;;;20.10;77.00;;;;;;10388751;28;20225;-32
2021/07/10 16:51:03;;;;;;;12.17;5.70;;;20.20;77.20;;;;;;10386466;28;20190;-33
2021/07/10 16:56:26;;;;;;;15.77;6.03;;;20.20;77.30;;;;;;10386599;28;20585;-31
2021/07/10 17:01:50;;;;;;;13.80;5.93;;;20.20;77.10;;;;;;10384491;28;20202;-34
2021/07/10 17:07:12;;;;;;;10.03;5.07;;;20.20;77.20;;;;;;10365752;28;20211;-33
2021/07/10 17:12:35;;;;;;;18.23;5.57;;;20.30;76.70;;;;;;10384012;28;20208;-32
2021/07/10 17:17:59;;;;;;;8.53;5.40;;;20.30;77.50;;;;;;10401616;28;20225;-32
2021/07/10 17:23:22;;;;;;;12.83;5.13;;;20.30;77.30;;;;;;10375935;28;20190;-34
2021/07/10 17:28:45;;;;;;;9.53;4.90;;;20.20;77.50;;;;;;10365139;28;20701;-37
2021/07/10 17:34:10;;;;;;;12.57;4.90;;;20.20;77.40;;;;;;10368427;28;20210;-34
2021/07/10 17:39:33;;;;;;;8.17;5.33;;;20.20;77.30;;;;;;10360331;28;20198;-37
2021/07/10 17:44:55;;;;;;;8.63;5.00;;;20.30;77.50;;;;;;10385622;28;20216;-35
2021/07/10 17:50:19;;;;;;;13.43;5.13;;;20.30;77.20;;;;;;10411535;28;20197;-37
2021/07/10 17:55:41;;;;;;;5.80;3.97;;;20.30;78.30;;;;;;10411165;28;20217;-32
2021/07/10 18:01:03;;;;;;;10.63;5.30;;;20.20;77.20;;;;;;10410678;28;20209;-34
2021/07/10 18:06:27;;;;;;;7.50;4.80;;;20.30;77.60;;;;;;10410991;28;20296;-32
2021/07/10 18:11:49;;;;;;;8.17;5.20;;;20.20;77.70;;;;;;10404665;28;20202;-32
2021/07/10 18:17:11;;;;;;;9.23;5.33;;;20.20;77.40;;;;;;10377884;28;20595;-35
2021/07/10 18:22:34;;;;;;;10.13;5.87;;;20.30;77.60;;;;;;10386315;28;21044;-39
2021/07/10 18:27:57;;;;;;;11.47;6.07;;;20.20;77.80;;;;;;10383906;28;20684;-33
2021/07/10 18:33:19;;;;;;;7.63;5.50;;;20.20;77.90;;;;;;10403399;28;20194;-32
2021/07/10 18:38:43;;;;;;;8.60;5.73;;;20.20;77.70;;;;;;10411937;28;20192;-35
2021/07/10 18:44:05;;;;;;;7.60;6.10;;;20.20;77.80;;;;;;10411221;28;20232;-34
2021/07/10 18:49:27;;;;;;;8.77;6.30;;;20.20;77.80;;;;;;10412728;28;20193;-34
2021/07/10 18:54:51;;;;;;;9.70;6.00;;;20.20;78.00;;;;;;10379819;28;20585;-32
2021/07/10 19:00:15;;;;;;;9.33;5.97;;;20.20;78.30;;;;;;10370662;28;20688;-33
2021/07/10 19:05:38;;;;;;;9.20;6.10;;;20.20;78.30;;;;;;10369987;28;20215;-35
2021/07/10 19:11:02;;;;;;;8.67;6.17;;;20.20;79.00;;;;;;10382117;28;20207;-35
2021/07/10 19:16:24;;;;;;;6.23;5.40;;;20.20;78.40;;;;;;10369004;28;20286;-33
2021/07/10 19:21:46;;;;;;;7.13;5.30;;;20.20;78.50;;;;;;10391701;28;20204;-32
2021/07/10 19:27:10;;;;;;;7.37;5.40;;;20.20;78.50;;;;;;10399298;28;20297;-31
2021/07/10 19:32:32;;;;;;;6.80;5.30;;;20.20;78.60;;;;;;10385303;28;20199;-34
2021/07/10 19:37:55;;;;;;;8.73;4.80;;;20.20;78.70;;;;;;10402552;28;20240;-36
2021/07/10 19:43:19;;;;;;;6.67;5.20;;;20.20;78.60;;;;;;10373597;28;20195;-31
2021/07/10 19:48:42;;;;;;;7.73;5.30;;;20.20;78.60;;;;;;10427161;23;20592;-23
2021/07/10 19:54:04;;;;;;;7.20;5.30;;;20.20;78.70;;;;;;10413265;28;20222;-22
2021/07/10 19:59:27;;;;;;;7.13;5.73;;;20.20;78.50;;;;;;10411508;28;20722;-23
2021/07/10 20:04:50;;;;;;;6.27;5.33;;;20.20;78.60;;;;;;10399307;28;20220;-24
2021/07/10 20:10:15;;;;;;;5.20;4.77;;;20.20;78.50;;;;;;10399065;28;20205;-23
2021/07/10 20:15:38;;;;;;;5.70;4.90;;;20.20;78.30;;;;;;10373438;28;20229;-24
2021/07/10 20:21:01;;;;;;;6.13;5.37;;;20.20;78.30;;;;;;10398656;28;20198;-23
2021/07/10 20:26:23;;;;;;;6.37;5.63;;;20.20;78.00;;;;;;10412383;28;20225;-23
2021/07/10 20:31:46;;;;;;;7.73;5.73;;;20.20;78.20;;;;;;10413603;28;20212;-22
2021/07/10 20:37:09;;;;;;;6.40;5.80;;;20.20;78.10;;;;;;10412457;28;20217;-22
2021/07/10 20:42:31;;;;;;;6.50;5.90;;;20.10;78.30;;;;;;10372636;28;20198;-23
2021/07/10 20:47:55;;;;;;;7.90;6.67;;;20.10;78.10;;;;;;10371886;28;20218;-23
2021/07/10 20:53:17;;;;;;;7.60;6.73;;;20.00;77.70;;;;;;10403032;28;20233;-23
2021/07/10 20:58:39;;;;;;;6.70;5.97;;;20.00;77.80;;;;;;10412214;28;20219;-23
2021/07/10 21:04:03;;;;;;;7.87;6.47;;;19.90;78.00;;;;;;10387264;28;20205;-23
2021/07/10 21:09:25;;;;;;;8.50;6.23;;;19.90;77.90;;;;;;10394562;28;20216;-24
2021/07/10 21:14:47;;;;;;;7.07;6.27;;;19.80;78.20;;;;;;10411062;28;20681;-24
2021/07/10 21:20:16;;;;;;;7.77;5.87;;;19.70;78.20;;;;;;10407010;28;20193;-23
2021/07/10 21:25:40;;;;;;;6.87;6.17;;;19.70;78.40;;;;;;10370508;28;20226;-23
2021/07/10 21:31:03;;;;;;;9.07;6.20;;;19.70;78.80;;;;;;10370305;28;20205;-24
2021/07/10 21:36:26;;;;;;;6.53;5.83;;;19.60;78.80;;;;;;10383169;28;20348;-24
2021/07/10 21:41:48;;;;;;;6.97;6.27;;;19.60;78.90;;;;;;10409422;28;20206;-23
2021/07/10 21:47:11;;;;;;;9.27;6.73;;;19.60;79.20;;;;;;10409964;28;20221;-23
2021/07/10 21:52:34;;;;;;;7.07;6.37;;;19.60;79.20;;;;;;10410261;28;20198;-23
2021/07/10 21:57:56;;;;;;;7.10;6.40;;;19.50;79.40;;;;;;10408153;28;20213;-23
2021/07/10 22:03:19;;;;;;;7.90;7.10;;;19.50;79.70;;;;;;10409627;28;20213;-23
2021/07/10 22:08:42;;;;;;;7.47;6.77;;;19.50;79.70;;;;;;10418688;28;20221;-23
2021/07/10 22:14:05;;;;;;;8.00;6.83;;;19.50;79.70;;;;;;10417995;28;20194;-23
2021/07/10 22:19:27;;;;;;;7.57;6.77;;;19.40;79.90;;;;;;10385941;28;20685;-24
2021/07/10 22:24:51;;;;;;;7.03;6.43;;;19.40;79.80;;;;;;10376507;28;20206;-24
2021/07/10 22:30:14;;;;;;;8.10;7.20;;;19.40;80.20;;;;;;10376417;28;20206;-23
2021/07/10 22:35:37;;;;;;;9.70;7.37;;;19.40;80.50;;;;;;10405173;28;20225;-24
2021/07/10 22:41:00;;;;;;;7.97;7.27;;;19.40;80.40;;;;;;10417415;28;20202;-23
2021/07/10 22:46:22;;;;;;;8.30;7.50;;;19.40;80.70;;;;;;10393675;28;20217;-23
2021/07/10 22:51:45;;;;;;;8.33;7.53;;;19.40;80.50;;;;;;10417664;28;20202;-22
2021/07/10 22:57:08;;;;;;;8.13;7.33;;;19.40;80.60;;;;;;10416207;28;20220;-23
2021/07/10 23:02:30;;;;;;;8.83;7.23;;;19.40;80.00;;;;;;10415613;28;20265;-23
2021/07/10 23:07:53;;;;;;;6.50;5.90;;;19.40;80.20;;;;;;10413790;28;20225;-25
2021/07/10 23:13:16;;;;;;;8.60;6.47;;;19.50;80.00;;;;;;10408335;28;20692;-23
2021/07/10 23:18:39;;;;;;;7.60;6.80;;;19.60;79.70;;;;;;10414669;28;20260;-23
2021/07/10 23:24:01;;;;;;;7.20;6.50;;;19.60;79.60;;;;;;10409195;28;20193;-24
2021/07/10 23:29:25;;;;;;;8.07;6.30;;;19.50;79.50;;;;;;10415760;28;20217;-24
2021/07/10 23:34:47;;;;;;;11.53;6.47;;;19.40;79.50;;;;;;10410620;28;20198;-22
2021/07/10 23:40:11;;;;;;;7.20;6.50;;;19.40;79.60;;;;;;10414446;28;20202;-23
2021/07/10 23:45:35;;;;;;;7.33;6.63;;;19.40;79.60;;;;;;10414469;28;20217;-23
2021/07/10 23:50:57;;;;;;;8.13;6.97;;;19.40;79.30;;;;;;10401414;28;20197;-24
2021/07/10 23:56:19;;;;;;;7.53;6.73;;;19.40;79.20;;;;;;10373461;28;20214;-24
